Time;durP1;ratioP1;P1;durP2;ratioP2;P2;SDS_P1;SDS_P2;PMS_P1;PMS_P2;Temp;Humidity;BMP_temperature;BMP_pressure;BME280_temperature;BME280_humidity;BME280_pressure;Samples;Min_cycle;Max_cycle;Signal;HPM_P1;HPM_P2
2023/09/22 00:00:43;;;;;;;0.65;0.65;;;;;;;19.44;nan;61358.56;5033532;28;20662;-61
2023/09/22 00:03:10;;;;;;;1.30;1.00;;;;;;;19.52;nan;61300.78;5032895;28;20175;-63
2023/09/22 00:05:36;;;;;;;0.88;0.80;;;;;;;19.51;nan;61271.16;5032098;28;20187;-63
2023/09/22 00:08:03;;;;;;;1.15;1.00;;;;;;;19.47;nan;61183.19;5040225;28;20183;-63
2023/09/22 00:10:29;;;;;;;0.80;0.80;;;;;;;19.55;nan;61220.69;5037542;28;20222;-64
2023/09/22 00:12:54;;;;;;;0.90;0.90;;;;;;;19.48;nan;61280.72;5043929;28;20189;-62
2023/09/22 00:15:21;;;;;;;1.27;1.02;;;;;;;19.48;nan;61355.31;5031868;28;20172;-62
2023/09/22 00:17:47;;;;;;;0.80;0.80;;;;;;;19.57;nan;61230.69;5039694;28;20170;-62
2023/09/22 00:20:14;;;;;;;1.10;1.00;;;;;;;19.50;nan;61192.28;5041289;28;20300;-64
2023/09/22 00:22:40;;;;;;;1.15;0.90;;;;;;;19.19;nan;61150.16;5047084;28;20178;-62
2023/09/22 00:25:07;;;;;;;0.60;0.60;;;;;;;19.32;nan;61084.50;5035757;28;20575;-61
2023/09/22 00:27:33;;;;;;;0.93;0.90;;;;;;;19.28;nan;61033.34;5040104;28;20234;-62
2023/09/22 00:29:58;;;;;;;0.50;0.50;;;;;;;19.31;nan;60940.34;5039960;28;20349;-61
2023/09/22 00:32:24;;;;;;;0.70;0.70;;;;;;;19.30;nan;60918.50;5032538;28;20186;-62
2023/09/22 00:34:49;;;;;;;0.80;0.80;;;;;;;19.07;nan;60616.22;5039730;28;20178;-63
2023/09/22 00:37:14;;;;;;;0.73;0.73;;;;;;;19.35;nan;60629.38;5032810;28;20195;-61
2023/09/22 00:39:40;;;;;;;0.80;0.77;;;;;;;19.37;nan;60519.69;5047619;28;20290;-61
2023/09/22 00:42:09;;;;;;;0.85;0.80;;;;;;;19.16;nan;60483.88;5031654;28;20183;-63
2023/09/22 00:44:34;;;;;;;1.13;1.02;;;;;;;19.40;nan;60438.09;5038648;28;20691;-63
2023/09/22 00:47:00;;;;;;;1.13;1.02;;;;;;;19.23;nan;60568.81;5040785;28;20218;-62
2023/09/22 00:49:26;;;;;;;0.88;0.85;;;;;;;19.28;nan;60561.44;5042187;28;20233;-62
2023/09/22 00:51:52;;;;;;;0.90;0.90;;;;;;;19.49;nan;60589.53;5032634;28;20164;-62
2023/09/22 00:54:18;;;;;;;0.90;0.90;;;;;;;19.54;nan;60639.16;5047972;28;20178;-62
2023/09/22 00:56:45;;;;;;;1.08;0.95;;;;;;;19.22;nan;60536.63;5044499;28;20667;-61
2023/09/22 00:59:13;;;;;;;0.77;0.73;;;;;;;19.47;nan;60572.28;5042008;28;20271;-61
2023/09/22 01:01:39;;;;;;;1.00;1.00;;;;;;;19.91;nan;60823.06;5040352;28;20589;-64
2023/09/22 01:04:05;;;;;;;1.35;1.00;;;;;;;19.82;nan;61142.22;5031346;28;20183;-62
2023/09/22 01:06:31;;;;;;;0.77;0.77;;;;;;;19.53;nan;60838.09;5031560;28;20258;-60
2023/09/22 01:08:57;;;;;;;0.90;0.90;;;;;;;19.22;nan;60718.44;5039620;28;20181;-61
2023/09/22 01:11:23;;;;;;;1.13;1.00;;;;;;;19.05;nan;60546.13;5038602;28;20187;-63
2023/09/22 01:13:48;;;;;;;0.90;0.80;;;;;;;19.04;nan;60335.91;5030954;28;20225;-63
2023/09/22 01:16:14;;;;;;;1.25;0.93;;;;;;;19.21;nan;60303.00;5042167;28;20178;-60
2023/09/22 01:18:39;;;;;;;0.85;0.77;;;;;;;19.17;nan;60161.34;5040238;28;20206;-63
2023/09/22 01:21:04;;;;;;;0.80;0.80;;;;;;;19.07;nan;59844.81;5032114;28;20230;-61
2023/09/22 01:23:30;;;;;;;1.00;0.85;;;;;;;19.06;nan;59887.72;5049042;28;20170;-61
2023/09/22 01:25:55;;;;;;;0.70;0.70;;;;;;;18.81;nan;59816.13;5033985;28;20187;-62
2023/09/22 01:28:21;;;;;;;0.98;0.93;;;;;;;18.95;nan;59394.25;5049585;28;20245;-61
2023/09/22 01:30:47;;;;;;;1.25;0.98;;;;;;;18.84;nan;59305.13;5030900;28;20175;-62
2023/09/22 01:33:12;;;;;;;1.25;1.15;;;;;;;18.91;nan;59182.88;5030341;28;20549;-62
2023/09/22 01:35:38;;;;;;;0.80;0.80;;;;;;;18.84;nan;58316.50;5035387;28;20197;-61
2023/09/22 01:38:23;;;;;;;1.30;1.20;;;;;;;18.60;nan;57737.97;5051270;28;20163;-62
2023/09/22 01:40:50;;;;;;;0.90;0.90;;;;;;;18.72;nan;56297.66;5040373;28;20219;-63
2023/09/22 01:43:16;;;;;;;0.90;0.90;;;;;;;18.99;nan;57515.34;5032556;28;20183;-62
2023/09/22 01:45:42;;;;;;;0.68;0.68;;;;;;;19.12;nan;59384.44;5035156;28;20627;-61
2023/09/22 01:48:08;;;;;;;2.03;1.30;;;;;;;18.49;nan;58506.75;5030399;28;20189;-62
2023/09/22 01:50:41;;;;;;;1.33;1.23;;;;;;;18.74;nan;58442.75;5029813;28;20283;-62
2023/09/22 01:53:09;;;;;;;1.05;1.00;;;;;;;18.77;nan;58492.56;5037952;28;20293;-62
2023/09/22 01:55:38;;;;;;;1.08;0.93;;;;;;;15.63;nan;58005.41;5030329;28;20310;-63
2023/09/22 01:58:04;;;;;;;0.80;0.80;;;;;;;18.56;nan;57989.03;5031071;28;20195;-62
2023/09/22 02:00:31;;;;;;;2.72;0.80;;;;;;;18.36;nan;57756.72;5036616;28;20747;-61
2023/09/22 02:02:57;;;;;;;0.95;0.90;;;;;;;18.40;nan;57595.63;5030110;28;20183;-62
2023/09/22 02:05:22;;;;;;;0.98;0.98;;;;;;;18.21;nan;57213.78;5037951;28;20697;-64
2023/09/22 02:07:48;;;;;;;1.08;1.00;;;;;;;18.16;nan;56828.84;5036902;28;20266;-63
2023/09/22 02:10:13;;;;;;;1.30;1.20;;;;;;;18.17;nan;56094.03;5030851;28;20634;-62
2023/09/22 02:12:46;;;;;;;1.25;1.15;;;;;;;18.13;nan;55299.97;5033392;28;20261;-63
2023/09/22 02:15:12;;;;;;;1.02;0.93;;;;;;;18.04;nan;54991.91;5041285;28;20187;-63
2023/09/22 02:17:39;;;;;;;0.80;0.80;;;;;;;17.96;nan;54638.00;5030224;28;20185;-61
2023/09/22 02:20:18;;;;;;;0.95;0.95;;;;;;;18.09;nan;54168.75;5030096;28;20245;-62
2023/09/22 02:22:48;;;;;;;0.95;0.93;;;;;;;17.99;nan;53722.75;5044201;28;20187;-61
2023/09/22 02:25:15;;;;;;;1.00;0.82;;;;;;;17.95;nan;53733.69;5031040;28;20183;-61
2023/09/22 02:27:41;;;;;;;1.23;0.98;;;;;;;18.10;nan;53875.66;5047119;28;20182;-62
2023/09/22 02:30:08;;;;;;;1.30;1.20;;;;;;;18.25;nan;54161.19;5038824;28;20274;-62
2023/09/22 02:32:34;;;;;;;1.20;1.10;;;;;;;18.36;nan;55447.59;5033580;28;20305;-62
2023/09/22 02:34:59;;;;;;;0.95;0.95;;;;;;;18.10;nan;55124.00;5042340;28;20185;-61
2023/09/22 02:37:25;;;;;;;1.15;1.00;;;;;;;18.18;nan;54414.75;5036635;28;20282;-62
2023/09/22 02:39:50;;;;;;;0.80;0.80;;;;;;;18.09;nan;53580.06;5049431;28;20670;-62
2023/09/22 02:42:17;;;;;;;3.65;1.05;;;;;;;17.81;nan;52724.53;5033790;28;20644;-62
2023/09/22 02:44:42;;;;;;;1.27;0.82;;;;;;;17.86;nan;51155.22;5033465;28;20207;-61
2023/09/22 02:47:07;;;;;;;1.52;0.90;;;;;;;17.98;nan;50668.94;5042716;28;20210;-62
2023/09/22 02:49:33;;;;;;;1.05;1.05;;;;;;;17.99;nan;50110.72;5033120;28;20769;-64
2023/09/22 02:51:58;;;;;;;0.70;0.70;;;;;;;17.84;nan;47102.28;5041699;28;20190;-62
2023/09/22 02:54:24;;;;;;;1.08;1.08;;;;;;;17.53;nan;44807.53;5033811;28;20186;-61
2023/09/22 02:56:49;;;;;;;1.20;1.10;;;;;;;17.54;nan;44078.44;5033392;28;20250;-61
2023/09/22 02:59:15;;;;;;;0.98;0.98;;;;;;;17.73;nan;43201.72;5034849;28;20293;-61
2023/09/22 03:01:42;;;;;;;1.25;1.05;;;;;;;17.74;nan;42704.41;5050874;28;20179;-61
2023/09/22 03:04:09;;;;;;;1.00;1.00;;;;;;;17.75;nan;42285.97;5033850;28;20721;-62
2023/09/22 03:06:35;;;;;;;1.00;0.98;;;;;;;17.71;nan;40605.78;5032933;28;20266;-63
2023/09/22 03:09:06;;;;;;;1.08;0.98;;;;;;;17.49;nan;39513.03;5041392;28;20178;-61
2023/09/22 03:11:31;;;;;;;1.38;1.20;;;;;;;17.53;nan;40070.50;5033139;28;20226;-60
2023/09/22 03:13:57;;;;;;;1.45;1.17;;;;;;;17.59;nan;37498.81;5040671;28;20174;-62
2023/09/22 03:16:22;;;;;;;1.08;1.00;;;;;;;17.51;nan;30606.13;5045074;28;20186;-62
2023/09/22 03:18:49;;;;;;;1.02;1.02;;;;;;;17.38;nan;28960.44;5034273;28;20242;-62
2023/09/22 03:21:15;;;;;;;1.00;1.00;;;;;;;17.61;nan;28974.38;5037390;28;20207;-63
2023/09/22 03:23:41;;;;;;;1.10;1.00;;;;;;;17.35;nan;25359.50;5033614;28;20179;-62
2023/09/22 03:26:06;;;;;;;1.30;1.20;;;;;;;17.26;nan;22739.97;5050001;28;20232;-62
2023/09/22 03:28:32;;;;;;;1.15;1.05;;;;;;;17.25;nan;20127.06;5033602;28;20252;-61
2023/09/22 03:30:58;;;;;;;1.20;1.10;;;;;;;17.32;nan;18171.81;5033219;28;20180;-62
2023/09/22 03:33:24;;;;;;;1.15;1.08;;;;;;;17.17;nan;16208.84;5040373;28;20266;-61
2023/09/22 03:35:50;;;;;;;0.95;0.95;;;;;;;17.37;nan;15890.22;5032614;28;20619;-62
2023/09/22 03:38:15;;;;;;;6.47;2.45;;;;;;;17.24;nan;15559.47;5031522;28;20215;-62
2023/09/22 03:40:41;;;;;;;1.85;1.30;;;;;;;17.18;nan;14253.81;5032680;28;20195;-61
2023/09/22 03:43:07;;;;;;;1.00;0.95;;;;;;;17.43;nan;14914.41;5032168;28;20191;-63
2023/09/22 03:45:33;;;;;;;2.40;1.85;;;;;;;17.44;nan;14262.56;5031466;28;20183;-61
2023/09/22 03:47:58;;;;;;;1.25;1.15;;;;;;;16.86;nan;12614.47;5032400;28;20195;-62
2023/09/22 03:50:24;;;;;;;1.00;0.90;;;;;;;17.35;nan;14259.41;5031929;28;20911;-62
2023/09/22 03:52:49;;;;;;;1.63;1.15;;;;;;;17.56;nan;14266.78;5032372;28;20188;-61
2023/09/22 03:55:15;;;;;;;1.05;1.00;;;;;;;17.53;nan;14265.75;5031450;28;20179;-61
2023/09/22 03:57:41;;;;;;;2.97;1.77;;;;;;;17.54;nan;15896.81;5031736;28;20183;-62
2023/09/22 04:00:17;;;;;;;1.35;1.25;;;;;;;17.30;nan;15887.75;5031604;28;20720;-62
2023/09/22 04:02:44;;;;;;;1.85;1.17;;;;;;;17.39;nan;14912.97;5031909;28;20698;-65
2023/09/22 04:05:11;;;;;;;2.05;1.38;;;;;;;17.35;nan;15563.38;5031786;28;20191;-61
2023/09/22 04:07:37;;;;;;;1.52;1.40;;;;;;;17.13;nan;11646.41;5032271;28;20187;-62
2023/09/22 04:10:03;;;;;;;1.70;1.27;;;;;;;17.14;nan;10670.34;5028068;28;20171;-61
2023/09/22 04:12:29;;;;;;;1.45;1.35;;;;;;;17.13;nan;9693.66;5031491;28;20183;-62
2023/09/22 04:14:56;;;;;;;1.33;1.23;;;;;;;16.94;nan;8062.53;5032055;28;20187;-62
2023/09/22 04:17:21;;;;;;;1.77;1.40;;;;;;;17.00;nan;8064.13;5031292;28;20187;-63
2023/09/22 04:19:49;;;;;;;1.23;1.10;;;;;;;17.09;nan;6115.75;5031433;28;20225;-61
2023/09/22 04:22:16;;;;;;;2.97;2.03;;;;;;;16.97;nan;5138.53;5029564;28;20263;-61
2023/09/22 04:24:47;;;;;;;2.05;1.70;;;;;;;17.04;nan;4815.19;5031463;28;20175;-62
2023/09/22 04:27:14;;;;;;;1.70;1.52;;;;;;;17.10;nan;4816.25;5031205;28;20183;-61
2023/09/22 04:29:40;;;;;;;1.42;1.33;;;;;;;17.42;nan;4822.44;5030593;28;20262;-62
2023/09/22 04:32:06;;;;;;;1.70;1.40;;;;;;;17.41;nan;5472.34;5031577;28;20553;-62
2023/09/22 04:34:32;;;;;;;4.38;1.65;;;;;;;17.51;nan;7100.66;5031001;28;20260;-61
2023/09/22 04:36:58;;;;;;;1.70;1.52;;;;;;;17.65;nan;8405.72;5031465;28;20225;-62
2023/09/22 04:39:23;;;;;;;1.38;1.27;;;;;;;17.79;nan;10363.09;5031095;28;20204;-63
2023/09/22 04:41:48;;;;;;;2.78;2.00;;;;;;;18.06;nan;13305.41;5031146;28;20267;-62
2023/09/22 04:44:15;;;;;;;1.30;1.20;;;;;;;17.96;nan;17544.78;5030857;28;20184;-61
2023/09/22 04:46:40;;;;;;;1.50;0.95;;;;;;;18.16;nan;18206.31;5030804;28;20623;-62
2023/09/22 04:49:06;;;;;;;1.20;1.10;;;;;;;18.25;nan;23769.94;5031444;28;20266;-62
2023/09/22 04:51:32;;;;;;;1.15;1.05;;;;;;;18.49;nan;24109.88;5031015;28;20223;-62
2023/09/22 04:53:57;;;;;;;1.95;1.23;;;;;;;18.56;nan;26406.50;5030584;28;20268;-62
2023/09/22 04:56:23;;;;;;;1.20;1.10;;;;;;;18.48;nan;28369.25;5029189;28;20227;-62
2023/09/22 04:58:51;;;;;;;1.83;1.40;;;;;;;18.55;nan;32639.41;5031392;28;20194;-62
2023/09/22 05:01:17;;;;;;;1.25;1.15;;;;;;;18.80;nan;37345.41;5030502;28;20203;-63
2023/09/22 05:03:43;;;;;;;0.73;0.70;;;;;;;18.84;nan;42847.53;5030964;28;20266;-62
2023/09/22 05:06:09;;;;;;;1.60;1.05;;;;;;;18.94;nan;51451.69;5030767;28;20789;-63
2023/09/22 05:08:38;;;;;;;1.40;1.25;;;;;;;19.04;nan;54340.81;5030848;28;20589;-62
2023/09/22 05:11:08;;;;;;;0.90;0.90;;;;;;;18.87;nan;55757.63;5030710;28;20191;-62
2023/09/22 05:13:35;;;;;;;3.50;1.67;;;;;;;19.01;nan;55875.53;5030373;28;20183;-61
2023/09/22 05:16:14;;;;;;;1.23;1.13;;;;;;;19.14;nan;57107.09;5030842;28;20802;-63
2023/09/22 05:18:40;;;;;;;1.33;1.20;;;;;;;19.14;nan;56928.63;5030734;28;20187;-61
2023/09/22 05:21:09;;;;;;;1.35;1.20;;;;;;;19.09;nan;56596.97;5030926;28;20218;-62
2023/09/22 05:23:35;;;;;;;1.73;1.38;;;;;;;18.72;nan;55184.06;5030541;28;20665;-63
2023/09/22 05:26:08;;;;;;;2.08;1.85;;;;;;;19.01;nan;55180.22;5030509;28;20265;-62
2023/09/22 05:28:34;;;;;;;1.65;1.40;;;;;;;18.96;nan;55839.31;5030431;28;20646;-63
2023/09/22 05:31:00;;;;;;;4.00;1.45;;;;;;;19.36;nan;56532.72;5030270;28;20195;-62
2023/09/22 05:33:28;;;;;;;1.40;1.30;;;;;;;19.26;nan;56949.06;5029456;28;20538;-63
2023/09/22 05:35:54;;;;;;;2.10;1.33;;;;;;;19.53;nan;57191.34;5030322;28;20186;-63
2023/09/22 05:38:20;;;;;;;1.30;1.20;;;;;;;19.68;nan;57321.16;5030358;28;20183;-62
2023/09/22 05:40:45;;;;;;;3.25;1.52;;;;;;;19.90;nan;58020.56;5030851;28;20210;-63
2023/09/22 05:43:12;;;;;;;1.98;1.30;;;;;;;19.99;nan;58633.38;5030174;28;20206;-63
2023/09/22 05:45:37;;;;;;;1.33;1.20;;;;;;;20.10;nan;59003.53;5029812;28;20647;-63
2023/09/22 05:48:03;;;;;;;3.45;1.67;;;;;;;19.87;nan;58683.13;5030363;28;20182;-63
2023/09/22 05:50:29;;;;;;;1.77;1.20;;;;;;;19.81;nan;58076.19;5029452;28;20204;-64
2023/09/22 05:52:54;;;;;;;3.55;1.50;;;;;;;19.97;nan;58066.94;5030593;28;20269;-63
2023/09/22 05:55:20;;;;;;;1.65;1.42;;;;;;;19.90;nan;58447.47;5029487;28;20187;-62
2023/09/22 05:57:47;;;;;;;2.30;1.02;;;;;;;20.26;nan;59160.97;5030143;28;20222;-63
2023/09/22 06:00:17;;;;;;;1.20;1.10;;;;;;;20.51;nan;59215.75;5029244;28;20214;-63
2023/09/22 06:02:50;;;;;;;1.13;1.02;;;;;;;20.57;nan;59422.06;5052457;28;20178;-63
2023/09/22 06:05:26;;;;;;;2.40;1.50;;;;;;;20.91;nan;59876.72;5034217;28;20187;-62
2023/09/22 06:07:54;;;;;;;2.03;1.48;;;;;;;21.20;nan;60097.81;5034403;28;20183;-63
2023/09/22 06:10:20;;;;;;;1.98;1.50;;;;;;;21.23;nan;60275.16;5033994;28;20206;-63
2023/09/22 06:12:46;;;;;;;2.17;1.70;;;;;;;21.09;nan;60307.47;5034695;28;20278;-63
2023/09/22 06:15:15;;;;;;;2.83;1.70;;;;;;;21.25;nan;60561.13;5034690;28;20258;-63
2023/09/22 06:17:41;;;;;;;1.77;1.42;;;;;;;21.40;nan;60566.88;5034202;28;20313;-66
2023/09/22 06:20:15;;;;;;;1.42;1.33;;;;;;;21.59;nan;60751.84;5034524;28;20293;-64
2023/09/22 06:22:45;;;;;;;1.67;1.48;;;;;;;21.70;nan;60734.97;5034225;28;20190;-63
2023/09/22 06:25:10;;;;;;;2.33;1.40;;;;;;;21.71;nan;60785.50;5041169;28;20179;-64
2023/09/22 06:27:36;;;;;;;1.38;1.10;;;;;;;21.65;nan;60799.56;5042308;28;20186;-65
2023/09/22 06:30:10;;;;;;;2.03;1.38;;;;;;;21.95;nan;60924.75;5036963;28;20562;-68
2023/09/22 06:32:37;;;;;;;2.08;1.50;;;;;;;22.00;nan;61067.69;5033864;28;20186;-64
2023/09/22 06:35:05;;;;;;;2.55;1.55;;;;;;;22.07;nan;61137.97;5034720;28;20167;-64
2023/09/22 06:37:31;;;;;;;2.13;1.80;;;;;;;22.15;nan;61313.50;5049725;28;20179;-65
2023/09/22 06:39:56;;;;;;;1.70;1.25;;;;;;;22.41;nan;61253.75;5034328;28;20211;-65
2023/09/22 06:42:22;;;;;;;1.80;1.40;;;;;;;22.55;nan;61370.50;5033641;28;20183;-65
2023/09/22 06:44:47;;;;;;;2.00;1.75;;;;;;;22.40;nan;61338.53;5033461;28;20262;-63
2023/09/22 06:47:13;;;;;;;3.20;2.47;;;;;;;22.37;nan;61415.84;5042677;28;20181;-64
2023/09/22 06:49:38;;;;;;;1.48;1.38;;;;;;;22.36;nan;61646.41;5044873;28;20199;-63
2023/09/22 06:52:06;;;;;;;2.65;1.63;;;;;;;22.61;nan;61520.50;5033656;28;20233;-64
2023/09/22 06:54:32;;;;;;;1.63;1.27;;;;;;;22.42;nan;61619.38;5052369;28;20190;-63
2023/09/22 06:57:01;;;;;;;1.55;1.23;;;;;;;22.79;nan;61629.44;5034643;28;20215;-62
2023/09/22 06:59:27;;;;;;;1.40;1.30;;;;;;;22.71;nan;61589.69;5041894;28;20662;-62
2023/09/22 07:01:54;;;;;;;0.93;0.93;;;;;;;22.73;nan;61554.91;5054364;28;20265;-62
2023/09/22 07:04:21;;;;;;;1.40;1.30;;;;;;;22.93;nan;61741.69;5053414;28;20175;-62
2023/09/22 07:06:46;;;;;;;1.30;1.10;;;;;;;22.65;nan;61564.66;5054026;28;20159;-64
2023/09/22 07:09:12;;;;;;;2.38;1.30;;;;;;;22.77;nan;61791.28;5052622;28;20224;-63
2023/09/22 07:11:40;;;;;;;1.70;1.58;;;;;;;22.96;nan;61666.34;5052574;28;20187;-63
2023/09/22 07:14:08;;;;;;;2.17;1.40;;;;;;;23.35;nan;61840.91;5036159;28;20171;-63
2023/09/22 07:16:34;;;;;;;1.83;1.50;;;;;;;23.48;nan;61844.66;5047733;28;20262;-62
2023/09/22 07:19:02;;;;;;;1.75;1.45;;;;;;;23.59;nan;61836.84;5034057;28;20254;-63
2023/09/22 07:21:28;;;;;;;2.00;1.50;;;;;;;23.66;nan;61930.31;5045591;28;20285;-62
2023/09/22 07:23:55;;;;;;;1.30;1.10;;;;;;;23.77;nan;61844.22;5053940;28;20173;-62
2023/09/22 07:26:22;;;;;;;1.30;1.20;;;;;;;23.73;nan;61998.84;5042462;28;20163;-62
2023/09/22 07:28:47;;;;;;;0.88;0.88;;;;;;;23.96;nan;61951.34;5034039;28;20649;-61
2023/09/22 07:31:14;;;;;;;1.50;1.35;;;;;;;23.72;nan;62023.25;5033890;28;20210;-62
2023/09/22 07:33:45;;;;;;;1.30;1.20;;;;;;;24.01;nan;61959.06;5033751;28;20649;-63
2023/09/22 07:36:11;;;;;;;1.60;1.33;;;;;;;23.85;nan;61925.81;5033773;28;20179;-64
2023/09/22 07:38:37;;;;;;;2.30;1.23;;;;;;;23.72;nan;61895.94;5032348;28;20187;-63
2023/09/22 07:41:03;;;;;;;1.67;1.30;;;;;;;23.40;nan;61846.56;5033303;28;20191;-64
2023/09/22 07:43:29;;;;;;;1.63;1.52;;;;;;;23.82;nan;61958.91;5033603;28;20617;-63
2023/09/22 07:45:59;;;;;;;1.50;1.30;;;;;;;24.15;nan;61969.75;5033659;28;20639;-62
2023/09/22 07:48:25;;;;;;;1.80;1.48;;;;;;;24.20;nan;62100.81;5033432;28;20214;-63
2023/09/22 07:50:50;;;;;;;6.75;1.95;;;;;;;24.31;nan;61982.16;5033514;28;20176;-63
2023/09/22 07:53:17;;;;;;;1.40;1.30;;;;;;;24.03;nan;61959.31;5033610;28;20206;-64
2023/09/22 07:55:44;;;;;;;1.60;1.27;;;;;;;23.98;nan;61966.09;5032256;28;20256;-62
2023/09/22 07:58:10;;;;;;;2.53;1.50;;;;;;;24.33;nan;62034.63;5033334;28;20290;-63
2023/09/22 08:00:38;;;;;;;1.45;1.30;;;;;;;24.82;nan;62102.31;5033575;28;20615;-65
2023/09/22 08:03:08;;;;;;;1.55;1.30;;;;;;;25.02;nan;62109.97;5033408;28;20258;-64
2023/09/22 08:05:34;;;;;;;2.08;1.48;;;;;;;25.25;nan;62258.53;5033105;28;20217;-62
2023/09/22 08:08:00;;;;;;;1.38;1.25;;;;;;;25.21;nan;62373.72;5031984;28;20226;-64
2023/09/22 08:10:25;;;;;;;1.95;1.20;;;;;;;25.47;nan;62362.16;5032745;28;20175;-63
2023/09/22 08:12:51;;;;;;;1.30;1.20;;;;;;;25.43;nan;62362.25;5032780;28;20226;-63
2023/09/22 08:15:16;;;;;;;1.35;1.20;;;;;;;25.38;nan;62388.50;5033157;28;20159;-63
2023/09/22 08:17:45;;;;;;;1.60;1.30;;;;;;;25.16;nan;62386.91;5033359;28;20179;-62
2023/09/22 08:20:13;;;;;;;1.48;1.25;;;;;;;25.25;nan;62310.28;5032873;28;20726;-64
2023/09/22 08:22:42;;;;;;;2.13;1.45;;;;;;;25.37;nan;62297.81;5032716;28;20546;-64
2023/09/22 08:25:09;;;;;;;2.88;1.30;;;;;;;25.43;nan;62370.66;5032419;28;20164;-63
2023/09/22 08:27:36;;;;;;;1.60;1.50;;;;;;;25.53;nan;62408.25;5032708;28;20175;-63
2023/09/22 08:30:11;;;;;;;1.92;1.30;;;;;;;25.33;nan;62442.97;5032688;28;20553;-63
2023/09/22 08:32:41;;;;;;;1.52;1.25;;;;;;;25.18;nan;62417.41;5032783;28;20171;-62
2023/09/22 08:35:08;;;;;;;1.33;1.05;;;;;;;25.44;nan;62358.13;5032601;28;20729;-63
2023/09/22 08:37:36;;;;;;;2.17;1.67;;;;;;;25.47;nan;62346.44;5032527;28;20572;-63
2023/09/22 08:40:07;;;;;;;1.70;1.60;;;;;;;25.71;nan;62343.94;5032365;28;20689;-64
2023/09/22 08:42:33;;;;;;;2.15;1.77;;;;;;;25.66;nan;62414.13;5032561;28;20224;-63
2023/09/22 08:44:59;;;;;;;1.30;1.20;;;;;;;26.22;nan;62462.44;5032374;28;20262;-63
2023/09/22 08:47:25;;;;;;;1.48;1.30;;;;;;;26.45;nan;62278.47;5030985;28;20630;-62
2023/09/22 08:49:50;;;;;;;1.40;1.30;;;;;;;26.59;nan;62472.69;5032323;28;20180;-63
2023/09/22 08:52:16;;;;;;;1.35;1.20;;;;;;;26.78;nan;62447.22;5031644;28;20163;-63
2023/09/22 08:54:41;;;;;;;2.17;1.45;;;;;;;26.89;nan;62482.84;5032277;28;20195;-61
2023/09/22 08:57:07;;;;;;;1.50;1.40;;;;;;;27.15;nan;62530.34;5032465;28;20240;-62
2023/09/22 08:59:33;;;;;;;1.67;1.52;;;;;;;27.10;nan;62619.69;5032372;28;20185;-63
2023/09/22 09:02:01;;;;;;;1.45;1.20;;;;;;;27.19;nan;62241.59;5032230;28;20179;-63
2023/09/22 09:04:33;;;;;;;3.28;1.88;;;;;;;27.18;nan;62646.66;5030375;28;20226;-63
2023/09/22 09:07:01;;;;;;;4.32;1.52;;;;;;;27.21;nan;62563.47;5031241;28;20703;-63
2023/09/22 09:09:39;;;;;;;1.55;1.10;;;;;;;27.41;nan;62652.00;5031109;28;20179;-63
2023/09/22 09:12:08;;;;;;;1.73;1.30;;;;;;;27.62;nan;62630.84;5031437;28;20182;-64
2023/09/22 09:14:33;;;;;;;2.28;1.17;;;;;;;27.04;nan;62677.84;5031145;28;20186;-64
2023/09/22 09:16:59;;;;;;;1.13;1.00;;;;;;;27.11;nan;62670.69;5030306;28;20264;-63
2023/09/22 09:19:26;;;;;;;2.80;1.15;;;;;;;27.18;nan;62628.28;5030245;28;20183;-62
2023/09/22 09:22:12;;;;;;;2.10;1.33;;;;;;;27.31;nan;62587.47;5027889;28;20281;-63
2023/09/22 09:24:38;;;;;;;1.90;1.52;;;;;;;27.04;nan;62670.53;5029778;28;20183;-63
2023/09/22 09:27:17;;;;;;;1.38;1.15;;;;;;;27.23;nan;62579.47;5030237;28;20229;-64
2023/09/22 09:29:45;;;;;;;1.10;1.00;;;;;;;27.23;nan;62615.63;5030932;28;20171;-63
2023/09/22 09:32:11;;;;;;;1.75;1.40;;;;;;;27.41;nan;62638.28;5030509;28;20217;-64
2023/09/22 09:34:39;;;;;;;1.45;1.30;;;;;;;27.17;nan;62600.88;5030381;28;20187;-64
2023/09/22 09:37:16;;;;;;;2.88;1.52;;;;;;;27.47;nan;62891.97;5031192;28;20186;-64
2023/09/22 09:39:47;;;;;;;2.00;1.52;;;;;;;27.56;nan;62650.81;5030045;28;20664;-64
2023/09/22 09:42:18;;;;;;;1.60;1.27;;;;;;;27.81;nan;62743.97;5026423;28;20182;-64
2023/09/22 09:44:50;;;;;;;1.27;1.17;;;;;;;27.93;nan;62857.59;5030088;28;20179;-63
2023/09/22 09:47:32;;;;;;;1.67;1.58;;;;;;;28.14;nan;62807.56;5030410;28;20244;-62
2023/09/22 09:49:58;;;;;;;1.20;1.10;;;;;;;28.35;nan;62777.00;5028910;28;20277;-63
2023/09/22 09:52:30;;;;;;;3.67;1.63;;;;;;;28.38;nan;62827.22;5028950;28;20221;-63
2023/09/22 09:55:11;;;;;;;1.70;1.48;;;;;;;28.28;nan;62805.22;5026859;28;20196;-63
2023/09/22 09:57:38;;;;;;;2.08;1.45;;;;;;;28.02;nan;62716.06;5029842;28;20182;-62
2023/09/22 10:00:14;;;;;;;1.15;1.05;;;;;;;27.57;nan;62751.75;5037844;28;20202;-64
2023/09/22 10:02:44;;;;;;;1.50;1.30;;;;;;;27.51;nan;62729.13;5037238;28;20251;-62
2023/09/22 10:05:17;;;;;;;2.60;1.73;;;;;;;27.77;nan;62753.09;5030208;28;20273;-64
2023/09/22 10:07:46;;;;;;;2.28;1.52;;;;;;;27.85;nan;62675.56;5029228;28;20179;-63
2023/09/22 10:10:14;;;;;;;2.63;1.58;;;;;;;28.08;nan;62720.31;5027166;28;20293;-63
2023/09/22 10:12:42;;;;;;;1.88;1.45;;;;;;;28.02;nan;62771.25;5033314;28;20186;-64
2023/09/22 10:15:08;;;;;;;1.77;1.35;;;;;;;28.26;nan;62779.25;5034676;28;20193;-63
2023/09/22 10:17:34;;;;;;;3.88;1.77;;;;;;;28.38;nan;62875.13;5029297;28;20182;-62
2023/09/22 10:20:10;;;;;;;1.92;1.65;;;;;;;28.21;nan;62739.38;5029895;28;20206;-63
2023/09/22 10:22:40;;;;;;;1.33;1.23;;;;;;;28.53;nan;62813.44;5029173;28;20178;-64
2023/09/22 10:25:11;;;;;;;1.05;0.95;;;;;;;28.60;nan;62857.72;5030504;28;20849;-63
2023/09/22 10:27:59;;;;;;;2.15;1.30;;;;;;;28.60;nan;62801.91;5029316;28;20205;-64
2023/09/22 10:30:45;;;;;;;1.63;1.10;;;;;;;28.85;nan;62878.56;5026884;28;20182;-64
2023/09/22 10:33:16;;;;;;;8.65;1.65;;;;;;;29.07;nan;62902.69;5029602;28;20191;-64
2023/09/22 10:35:42;;;;;;;1.10;1.00;;;;;;;28.99;nan;62844.63;5033173;28;20183;-64
2023/09/22 10:38:10;;;;;;;3.38;2.22;;;;;;;28.95;nan;62971.63;5042397;28;20215;-64
2023/09/22 10:40:36;;;;;;;1.20;1.10;;;;;;;29.04;nan;62936.09;5029271;28;20249;-67
2023/09/22 10:43:03;;;;;;;3.47;1.08;;;;;;;28.83;nan;62802.59;5029559;28;20179;-64
2023/09/22 10:45:29;;;;;;;2.38;1.42;;;;;;;28.94;nan;63107.38;5030808;28;20582;-63
2023/09/22 10:47:58;;;;;;;1.95;1.33;;;;;;;27.61;nan;62919.16;5046247;28;20181;-66
2023/09/22 10:50:31;;;;;;;2.17;1.17;;;;;;;28.65;nan;62779.28;5037897;28;20675;-64
2023/09/22 10:53:05;;;;;;;1.40;1.17;;;;;;;28.72;nan;62818.91;5045322;28;20291;-63
2023/09/22 10:55:31;;;;;;;1.83;1.45;;;;;;;29.06;nan;62923.16;5033183;28;20229;-64
2023/09/22 10:57:58;;;;;;;2.17;1.40;;;;;;;29.23;nan;62945.31;5031558;28;20175;-63
2023/09/22 11:00:24;;;;;;;2.25;1.45;;;;;;;29.22;nan;62977.84;5033479;28;20291;-65
2023/09/22 11:02:50;;;;;;;1.15;1.05;;;;;;;28.96;nan;62866.91;5034088;28;20204;-65
2023/09/22 11:05:16;;;;;;;1.23;1.10;;;;;;;29.19;nan;62953.88;5040922;28;20258;-65
2023/09/22 11:07:44;;;;;;;1.08;1.08;;;;;;;29.31;nan;63030.91;5036530;28;20220;-66
2023/09/22 11:10:22;;;;;;;1.65;1.25;;;;;;;29.88;nan;63032.09;5038178;28;20182;-66
2023/09/22 11:12:54;;;;;;;1.80;1.30;;;;;;;30.00;nan;62902.97;5041141;28;20190;-64
2023/09/22 11:15:20;;;;;;;1.58;1.35;;;;;;;29.80;nan;62957.00;5033538;28;20638;-65
2023/09/22 11:17:46;;;;;;;1.40;1.02;;;;;;;29.79;nan;62993.31;5040225;28;20175;-64
2023/09/22 11:20:28;;;;;;;1.25;1.10;;;;;;;29.76;nan;62945.06;5033609;28;20199;-63
2023/09/22 11:22:56;;;;;;;2.63;1.70;;;;;;;29.48;nan;62999.84;5032988;28;20182;-63
2023/09/22 11:25:22;;;;;;;1.23;1.13;;;;;;;29.46;nan;63155.03;5032745;28;20205;-64
2023/09/22 11:27:50;;;;;;;1.20;1.10;;;;;;;29.63;nan;62943.31;5044995;28;20657;-64
2023/09/22 11:30:19;;;;;;;1.15;1.00;;;;;;;29.26;nan;62992.97;5035928;28;20179;-63
2023/09/22 11:32:46;;;;;;;1.70;1.13;;;;;;;29.43;nan;63009.91;5050082;28;20601;-67
2023/09/22 11:35:37;;;;;;;1.23;1.13;;;;;;;29.42;nan;62982.41;5033123;28;20634;-67
2023/09/22 11:38:27;;;;;;;2.20;1.60;;;;;;;29.45;nan;62969.47;5027788;28;20233;-66
2023/09/22 11:41:16;;;;;;;1.23;1.10;;;;;;;29.34;nan;62981.09;5031600;28;20206;-66
2023/09/22 11:43:44;;;;;;;1.92;1.17;;;;;;;29.36;nan;62841.75;5031886;28;20652;-64
2023/09/22 11:46:28;;;;;;;1.42;1.00;;;;;;;29.56;nan;63005.81;5040557;28;20186;-66
2023/09/22 11:48:57;;;;;;;1.17;0.80;;;;;;;29.67;nan;63026.97;5036443;28;20186;-65
2023/09/22 11:51:37;;;;;;;2.00;1.13;;;;;;;29.45;nan;62906.84;5035024;28;20174;-64
2023/09/22 11:54:03;;;;;;;1.88;1.02;;;;;;;29.47;nan;62929.63;5032504;28;20213;-63